Time;durP1;ratioP1;P1;durP2;ratioP2;P2;SDS_P1;SDS_P2;PMS_P1;PMS_P2;Temp;Humidity;BMP_temperature;BMP_pressure;BME280_temperature;BME280_humidity;BME280_pressure;Samples;Min_cycle;Max_cycle;Signal;HPM_P1;HPM_P2
2021/04/02 00:00:59;;;;;;;;;4.33;4.00;;;;;18.17;47.30;98108.88;4921077;28;104155;-78
2021/04/02 00:03:28;;;;;;;;;4.00;3.00;;;;;18.17;46.80;98121.75;4913010;28;102285;-78
2021/04/02 00:05:55;;;;;;;;;4.00;3.33;;;;;18.16;47.13;98118.19;4901085;28;104527;-78
2021/04/02 00:08:22;;;;;;;;;2.00;2.00;;;;;18.17;47.77;98121.75;4924441;28;104721;-78
2021/04/02 00:10:51;;;;;;;;;3.00;3.00;;;;;18.17;47.16;98136.25;4905380;28;102294;-78
2021/04/02 00:13:19;;;;;;;;;2.67;2.67;;;;;18.16;46.92;98131.84;4942231;28;102088;-78
2021/04/02 00:15:47;;;;;;;;;3.33;3.33;;;;;18.16;47.02;98140.06;4941904;28;105214;-78
2021/04/02 00:18:16;;;;;;;;;2.00;2.00;;;;;18.15;47.46;98140.31;4938660;28;103267;-78
2021/04/02 00:20:43;;;;;;;;;3.00;3.00;;;;;18.16;47.41;98139.25;4930531;28;102229;-78
2021/04/02 00:23:10;;;;;;;;;4.67;4.00;;;;;18.15;47.79;98140.31;4947786;28;102315;-78
2021/04/02 00:25:37;;;;;;;;;3.67;3.67;;;;;18.16;46.64;98136.50;4931352;28;111162;-78
2021/04/02 00:28:04;;;;;;;;;3.00;3.00;;;;;18.15;47.17;98135.69;4928435;28;103878;-78
2021/04/02 00:30:48;;;;;;;;;4.00;4.00;;;;;18.14;47.05;98125.00;4933836;28;109239;-78
2021/04/02 00:33:17;;;;;;;;;3.33;3.33;;;;;18.13;47.44;98118.72;4879682;28;102274;-78
2021/04/02 00:35:44;;;;;;;;;3.33;3.00;;;;;18.13;47.80;98104.19;4947387;28;103486;-78
2021/04/02 00:38:11;;;;;;;;;5.00;3.33;;;;;18.13;47.40;98112.41;4943287;28;101828;-78
2021/04/02 00:40:51;;;;;;;;;3.00;3.00;;;;;18.12;47.57;98099.81;4928519;28;102148;-77
2021/04/02 00:43:20;;;;;;;;;2.67;2.67;;;;;18.11;47.06;98092.69;4926823;28;102339;-78
2021/04/02 00:45:47;;;;;;;;;3.00;3.00;;;;;18.12;47.37;98094.34;4933276;28;105544;-78
2021/04/02 00:48:15;;;;;;;;;3.00;3.00;;;;;18.11;47.89;98096.25;4943459;28;102057;-78
2021/04/02 00:51:02;;;;;;;;;3.33;3.00;;;;;18.11;47.98;98098.16;4945776;28;101799;-78
2021/04/02 00:53:31;;;;;;;;;3.33;2.00;;;;;18.10;47.65;98097.31;4943479;28;102391;-78
2021/04/02 00:55:59;;;;;;;;;3.67;3.67;;;;;18.10;47.36;98102.78;4938521;28;109148;-78
2021/04/02 00:58:28;;;;;;;;;4.67;4.00;;;;;18.09;46.96;98100.34;4938919;28;102222;-78
2021/04/02 01:00:55;;;;;;;;;4.00;3.00;;;;;18.08;47.33;98093.22;4938833;28;101994;-78
2021/04/02 01:03:22;;;;;;;;;4.67;3.00;;;;;18.07;47.70;98097.03;4916400;28;101930;-78
2021/04/02 01:05:50;;;;;;;;;6.00;4.00;;;;;18.07;48.00;98103.31;4918768;28;103316;-78
2021/04/02 01:08:19;;;;;;;;;3.33;3.00;;;;;18.08;48.12;98101.41;4945899;28;102080;-77
2021/04/02 01:10:46;;;;;;;;;3.00;3.00;;;;;18.07;48.08;98102.50;4946459;28;103232;-77
2021/04/02 01:13:17;;;;;;;;;4.33;3.33;;;;;18.06;47.94;98098.94;4934181;28;107913;-78
2021/04/02 01:15:47;;;;;;;;;3.00;3.00;;;;;18.06;48.42;98092.63;4949799;28;104471;-78
2021/04/02 01:18:16;;;;;;;;;3.00;3.00;;;;;18.05;48.16;98094.56;4949292;28;102142;-78
2021/04/02 01:20:44;;;;;;;;;3.00;3.00;;;;;18.06;47.87;98100.84;4950849;28;102202;-78
2021/04/02 01:23:13;;;;;;;;;3.00;2.67;;;;;18.06;47.43;98095.38;4938008;28;103670;-78
2021/04/02 01:26:09;;;;;;;;;3.33;3.33;;;;;18.04;47.05;98087.44;4950484;28;103521;-78
2021/04/02 01:28:53;;;;;;;;;1.00;1.00;;;;;18.03;47.58;98096.72;4924679;28;102232;-77
2021/04/02 01:31:21;;;;;;;;;3.00;3.00;;;;;18.03;47.77;98090.44;4949254;28;101960;-78
2021/04/02 01:33:48;;;;;;;;;3.33;3.00;;;;;18.02;47.68;98105.19;4923694;28;102253;-78
2021/04/02 01:36:15;;;;;;;;;2.33;2.33;;;;;18.02;47.73;98099.72;4908110;28;103280;-78
2021/04/02 01:38:42;;;;;;;;;4.00;3.00;;;;;18.01;48.44;98101.63;4948619;28;102804;-78
2021/04/02 01:41:11;;;;;;;;;2.33;2.33;;;;;18.02;47.91;98105.19;4909728;28;102507;-77
2021/04/02 01:43:46;;;;;;;;;3.33;3.00;;;;;18.01;48.14;98103.56;4944715;28;102190;-78
2021/04/02 01:46:14;;;;;;;;;4.00;3.00;;;;;17.99;48.09;98094.78;4950366;28;102607;-78
2021/04/02 01:48:43;;;;;;;;;4.00;3.00;;;;;18.00;48.13;98091.78;4936124;28;101891;-78
2021/04/02 01:51:10;;;;;;;;;3.00;2.00;;;;;18.00;47.48;98088.22;4932782;28;101844;-78
2021/04/02 01:53:40;;;;;;;;;3.00;3.00;;;;;18.00;47.61;98090.97;4935748;28;101809;-78
2021/04/02 01:56:07;;;;;;;;;2.00;2.00;;;;;17.99;47.88;98090.13;4912704;28;103818;-77
2021/04/02 01:58:35;;;;;;;;;2.67;2.33;;;;;17.98;48.39;98093.13;4949294;28;105071;-78
2021/04/02 02:01:02;;;;;;;;;3.00;3.00;;;;;17.99;47.10;98095.59;4927867;28;102293;-77
2021/04/02 02:03:29;;;;;;;;;2.00;2.00;;;;;17.99;48.18;98102.97;4942620;28;102709;-77
2021/04/02 02:05:55;;;;;;;;;2.00;2.00;;;;;17.98;48.28;98095.84;4926138;28;103612;-78
2021/04/02 02:08:23;;;;;;;;;2.00;2.00;;;;;17.97;47.99;98091.47;4933176;28;101792;-78
2021/04/02 02:11:06;;;;;;;;;2.00;2.00;;;;;17.97;47.77;98103.22;4933625;28;109788;-78
2021/04/02 02:13:32;;;;;;;;;2.67;2.67;;;;;17.97;47.46;98111.44;4944156;28;102124;-77
2021/04/02 02:15:59;;;;;;;;;3.00;3.00;;;;;17.96;47.88;98109.81;4930348;28;104011;-78
2021/04/02 02:18:26;;;;;;;;;3.00;3.00;;;;;17.96;47.84;98100.78;4922296;28;104506;-78
2021/04/02 02:20:53;;;;;;;;;3.33;2.67;;;;;17.95;48.16;98107.31;4944109;28;101823;-78
2021/04/02 02:23:20;;;;;;;;;3.00;3.00;;;;;17.95;47.69;98110.06;4932690;28;101748;-77
2021/04/02 02:25:47;;;;;;;;;2.67;2.33;;;;;17.95;47.65;98116.38;4913782;28;103392;-78
2021/04/02 02:28:14;;;;;;;;;2.00;2.00;;;;;17.96;48.52;98106.25;4940624;28;101688;-78
2021/04/02 02:30:42;;;;;;;;;2.00;2.00;;;;;17.95;48.13;98104.59;4933042;28;102516;-78
2021/04/02 02:33:08;;;;;;;;;2.33;1.67;;;;;17.95;47.46;98115.53;4942839;28;101898;-78
2021/04/02 02:35:35;;;;;;;;;3.00;2.00;;;;;17.94;48.24;98108.41;4927463;28;103495;-78
2021/04/02 02:38:02;;;;;;;;;2.00;2.00;;;;;17.94;48.33;98108.41;4950488;28;101911;-78
2021/04/02 02:40:33;;;;;;;;;3.00;3.00;;;;;17.94;48.54;98113.88;4946769;28;101700;-78
2021/04/02 02:43:00;;;;;;;;;2.00;2.00;;;;;17.94;47.57;98113.88;4932498;28;102078;-78
2021/04/02 02:45:27;;;;;;;;;2.00;2.00;;;;;17.92;47.95;98127.00;4946411;28;105460;-78
2021/04/02 02:47:54;;;;;;;;;2.00;2.00;;;;;17.93;47.87;98106.75;4943146;28;101650;-78
2021/04/02 02:50:24;;;;;;;;;3.00;3.00;;;;;17.94;48.57;98116.63;4947119;28;102462;-78
2021/04/02 02:52:51;;;;;;;;;3.67;3.33;;;;;17.92;47.59;98105.91;4928050;28;102265;-78
2021/04/02 02:55:19;;;;;;;;;3.00;3.00;;;;;17.91;47.25;98104.28;4924075;28;103604;-77
2021/04/02 02:57:46;;;;;;;;;3.67;3.00;;;;;17.92;47.50;98110.59;4930375;28;101950;-78
2021/04/02 03:00:16;;;;;;;;;2.00;2.00;;;;;17.91;47.72;98106.19;4929543;28;103143;-78
2021/04/02 03:02:44;;;;;;;;;2.33;2.33;;;;;17.91;47.82;98114.41;4922141;28;102524;-78
2021/04/02 03:05:10;;;;;;;;;2.00;1.33;;;;;17.91;48.51;98119.88;4925562;28;103461;-78
2021/04/02 03:07:37;;;;;;;;;2.00;1.67;;;;;17.91;48.25;98128.09;4915461;28;102150;-77
2021/04/02 03:10:07;;;;;;;;;2.00;2.00;;;;;17.90;48.62;98130.00;4920911;28;101907;-78
2021/04/02 03:12:34;;;;;;;;;1.00;1.00;;;;;17.90;48.63;98129.16;4940130;28;101916;-78
2021/04/02 03:15:01;;;;;;;;;2.67;2.00;;;;;17.90;48.22;98131.91;4924143;28;108058;-78
2021/04/02 03:17:28;;;;;;;;;1.67;1.67;;;;;17.89;47.35;98130.25;4933537;28;102023;-78
2021/04/02 03:19:54;;;;;;;;;3.00;2.33;;;;;17.88;48.31;98132.16;4920348;28;102305;-78
2021/04/02 03:22:21;;;;;;;;;2.00;2.00;;;;;17.88;48.20;98129.41;4946009;28;102367;-78
2021/04/02 03:24:48;;;;;;;;;2.00;2.00;;;;;17.88;48.38;98131.34;4930998;28;103390;-78
2021/04/02 03:27:14;;;;;;;;;3.00;3.00;;;;;17.87;47.26;98136.00;4933120;28;104682;-78
2021/04/02 03:29:41;;;;;;;;;2.00;2.00;;;;;17.88;48.18;98147.75;4934544;28;101954;-78
2021/04/02 03:32:10;;;;;;;;;2.00;1.67;;;;;17.87;48.00;98159.78;4901510;28;101816;-77
2021/04/02 03:34:37;;;;;;;;;3.00;2.00;;;;;17.86;48.10;98156.22;4933208;28;104579;-77
2021/04/02 03:37:05;;;;;;;;;2.67;2.67;;;;;17.86;48.28;98155.38;4936551;28;104359;-78
2021/04/02 03:39:32;;;;;;;;;2.67;2.00;;;;;17.86;48.43;98160.84;4934984;28;104603;-77
2021/04/02 03:42:00;;;;;;;;;2.00;2.00;;;;;17.85;47.84;98157.28;4929004;28;102170;-77
2021/04/02 03:44:31;;;;;;;;;2.33;2.33;;;;;17.83;48.09;98157.53;4943733;28;103531;-78
2021/04/02 03:46:59;;;;;;;;;2.67;2.67;;;;;17.84;47.86;98161.94;4910473;28;102598;-77
2021/04/02 03:49:28;;;;;;;;;2.00;2.00;;;;;17.86;48.20;98160.84;4919453;28;102238;-77
2021/04/02 03:51:58;;;;;;;;;3.00;3.00;;;;;17.84;48.70;98161.94;4933861;28;111586;-77
2021/04/02 03:54:25;;;;;;;;;2.00;2.00;;;;;17.86;48.05;98158.94;4923111;28;103410;-77
2021/04/02 03:56:53;;;;;;;;;3.00;2.00;;;;;17.85;47.72;98168.22;4915858;28;102271;-78
2021/04/02 03:59:21;;;;;;;;;2.00;2.00;;;;;17.82;47.59;98177.78;4925148;28;109529;-78
2021/04/02 04:01:48;;;;;;;;;2.00;2.00;;;;;17.82;48.24;98182.44;4917808;28;103841;-78
2021/04/02 04:04:15;;;;;;;;;1.67;1.67;;;;;17.83;47.58;98176.69;4937059;28;103388;-77
2021/04/02 04:06:44;;;;;;;;;2.00;1.00;;;;;17.83;47.48;98184.88;4933460;28;101847;-78
2021/04/02 04:09:15;;;;;;;;;3.00;3.00;;;;;17.83;47.67;98184.88;4915219;28;102235;-78
2021/04/02 04:11:41;;;;;;;;;2.00;2.00;;;;;17.82;47.92;98186.00;4902359;28;102282;-78
2021/04/02 04:14:08;;;;;;;;;2.00;1.33;;;;;17.82;47.98;98186.00;4916724;28;103393;-77
2021/04/02 04:16:36;;;;;;;;;2.00;2.00;;;;;17.81;48.51;98188.97;4932309;28;109697;-78
2021/04/02 04:19:03;;;;;;;;;1.00;1.00;;;;;17.81;47.62;98189.81;4924599;28;103372;-78
2021/04/02 04:21:37;;;;;;;;;2.00;2.00;;;;;17.80;48.82;98201.00;4949839;28;101847;-78
2021/04/02 04:24:04;;;;;;;;;4.50;3.00;;;;;17.80;48.03;98201.00;4936815;28;108082;-78
2021/04/02 04:26:31;;;;;;;;;1.33;1.33;;;;;17.81;47.62;98208.94;4918112;28;102179;-77
2021/04/02 04:28:58;;;;;;;;;2.00;2.00;;;;;17.79;48.08;98205.63;4948487;28;101814;-78
2021/04/02 04:31:26;;;;;;;;;3.00;3.00;;;;;17.81;48.46;98213.59;4930845;28;110026;-77
2021/04/02 04:33:53;;;;;;;;;2.00;2.00;;;;;17.78;48.65;98217.69;4933545;28;103857;-77
2021/04/02 04:36:20;;;;;;;;;2.67;2.00;;;;;17.79;48.28;98232.97;4920432;28;102144;-77
2021/04/02 04:38:48;;;;;;;;;2.00;2.00;;;;;17.80;49.08;98242.03;4946242;28;102761;-77
2021/04/02 04:41:15;;;;;;;;;1.33;1.33;;;;;17.78;48.00;98244.19;4932209;28;104910;-77
2021/04/02 04:43:42;;;;;;;;;2.00;2.00;;;;;17.77;48.99;98248.00;4928418;28;103536;-77
2021/04/02 04:46:09;;;;;;;;;1.33;1.33;;;;;17.77;48.68;98257.03;4934640;28;101834;-77
2021/04/02 04:48:35;;;;;;;;;2.00;1.00;;;;;17.76;49.12;98255.38;4920457;28;102188;-77
2021/04/02 04:51:03;;;;;;;;;1.33;1.33;;;;;17.77;48.20;98265.25;4951975;28;102205;-77
2021/04/02 04:53:30;;;;;;;;;2.67;2.00;;;;;17.76;48.86;98280.00;4951582;28;110789;-77
2021/04/02 04:55:59;;;;;;;;;1.67;1.67;;;;;17.77;47.93;98284.41;4932614;28;101775;-77
2021/04/02 04:58:28;;;;;;;;;1.33;1.33;;;;;17.76;48.24;98296.41;4916491;28;101816;-77
2021/04/02 05:00:56;;;;;;;;;1.67;1.67;;;;;17.76;49.03;98293.69;4937268;28;103579;-77
2021/04/02 05:03:24;;;;;;;;;1.67;1.67;;;;;17.78;48.12;98307.09;4945964;28;103534;-77
2021/04/02 05:05:53;;;;;;;;;1.00;1.00;;;;;17.75;48.58;98305.69;4937001;28;102107;-77
2021/04/02 05:08:22;;;;;;;;;1.33;1.33;;;;;17.75;48.40;98302.94;4913701;28;102550;-77
2021/04/02 05:10:50;;;;;;;;;2.00;2.00;;;;;17.74;47.79;98319.63;4916339;28;102220;-77
2021/04/02 05:13:16;;;;;;;;;2.00;1.33;;;;;17.73;47.98;98316.06;4914198;28;103580;-77
2021/04/02 05:15:43;;;;;;;;;2.00;2.00;;;;;17.72;48.63;98325.34;4917435;28;103872;-77
2021/04/02 05:18:12;;;;;;;;;1.33;1.33;;;;;17.73;48.39;98321.53;4905080;28;102425;-77
2021/04/02 05:20:42;;;;;;;;;1.33;1.33;;;;;17.72;48.44;98319.03;4942834;28;102421;-77
2021/04/02 05:23:10;;;;;;;;;2.00;2.00;;;;;17.71;48.12;98323.69;4942722;28;103794;-77
2021/04/02 05:25:36;;;;;;;;;3.00;2.00;;;;;17.71;47.87;98333.78;4958389;28;102072;-77
2021/04/02 05:28:04;;;;;;;;;1.00;1.00;;;;;17.71;48.41;98322.84;4938743;28;102258;-77
2021/04/02 05:30:31;;;;;;;;;2.00;2.00;;;;;17.70;48.11;98324.75;4921609;28;102375;-77
2021/04/02 05:32:57;;;;;;;;;2.33;2.00;;;;;17.69;48.08;98331.34;4913378;28;103374;-77
2021/04/02 05:35:24;;;;;;;;;1.00;1.00;;;;;17.70;48.65;98319.28;4932309;28;107721;-77
2021/04/02 05:37:51;;;;;;;;;1.00;1.00;;;;;17.69;48.52;98322.31;4947803;28;102209;-77
2021/04/02 05:40:18;;;;;;;;;2.00;1.00;;;;;17.69;48.19;98325.88;4949721;28;104663;-77
2021/04/02 05:43:02;;;;;;;;;2.00;2.00;;;;;17.68;48.15;98329.69;4944749;28;106013;-77
2021/04/02 05:45:29;;;;;;;;;2.00;2.00;;;;;17.68;47.83;98335.16;4934642;28;103520;-77
2021/04/02 05:47:57;;;;;;;;;2.00;1.67;;;;;17.68;47.70;98337.88;4946945;28;102165;-77
2021/04/02 05:50:23;;;;;;;;;2.33;2.33;;;;;17.67;48.05;98329.91;4932429;28;103299;-77
2021/04/02 05:52:50;;;;;;;;;1.33;1.33;;;;;17.68;48.64;98339.78;4933864;28;103604;-77
2021/04/02 05:55:17;;;;;;;;;1.33;1.33;;;;;17.66;48.76;98337.28;4927740;28;101730;-77
2021/04/02 05:57:47;;;;;;;;;2.00;2.00;;;;;17.65;48.59;98334.81;4934729;28;102325;-77
2021/04/02 06:00:14;;;;;;;;;2.00;2.00;;;;;17.65;48.52;98335.63;4936226;28;104431;-77
2021/04/02 06:02:41;;;;;;;;;2.00;2.00;;;;;17.64;47.87;98339.47;4953959;28;104846;-78
2021/04/02 06:05:09;;;;;;;;;2.00;2.00;;;;;17.63;47.98;98326.88;4952830;28;102217;-78
2021/04/02 06:07:39;;;;;;;;;2.00;1.00;;;;;17.63;48.51;98326.88;4935825;28;102183;-78
2021/04/02 06:10:06;;;;;;;;;1.00;1.00;;;;;17.64;48.15;98327.69;4951062;28;102336;-78
2021/04/02 06:12:36;;;;;;;;;1.00;1.00;;;;;17.63;47.99;98331.50;4953890;28;108100;-77
2021/04/02 06:15:04;;;;;;;;;1.33;1.33;;;;;17.63;48.70;98335.06;4939183;28;101804;-76
2021/04/02 06:18:04;;;;;;;;;2.67;2.33;;;;;17.62;48.40;98341.63;4929308;28;102341;-76
2021/04/02 06:20:33;;;;;;;;;1.00;1.00;;;;;17.61;47.93;98339.94;4891996;28;101817;-77
2021/04/02 06:23:04;;;;;;;;;1.33;1.33;;;;;17.61;48.50;98334.47;4951271;28;103612;-76
2021/04/02 06:25:30;;;;;;;;;0.00;0.00;;;;;17.61;48.37;98337.22;4951273;28;102287;-77
2021/04/02 06:27:57;;;;;;;;;2.00;1.67;;;;;17.61;48.38;98344.59;4951880;28;102181;-76
2021/04/02 06:30:25;;;;;;;;;2.00;2.00;;;;;17.61;48.43;98350.88;4950842;28;102338;-77
2021/04/02 06:32:52;;;;;;;;;3.00;3.00;;;;;17.60;48.02;98349.25;4931325;28;103687;-76
2021/04/02 06:35:19;;;;;;;;;2.00;2.00;;;;;17.61;48.10;98350.88;4962885;28;102367;-75
2021/04/02 06:37:52;;;;;;;;;2.00;1.00;;;;;17.61;47.79;98350.88;4928433;28;103702;-76
2021/04/02 06:40:20;;;;;;;;;2.00;2.00;;;;;17.61;48.33;98361.81;4955475;28;102241;-77
2021/04/02 06:42:46;;;;;;;;;1.00;1.00;;;;;17.58;48.43;98356.88;4955227;28;103271;-78
2021/04/02 06:45:13;;;;;;;;;2.00;1.00;;;;;17.60;48.47;98368.41;4955533;28;102177;-77
2021/04/02 06:47:41;;;;;;;;;1.00;1.00;;;;;17.60;47.93;98371.13;4936623;28;105180;-76
2021/04/02 06:50:19;;;;;;;;;1.67;1.00;;;;;17.60;48.52;98370.31;4955423;28;101724;-76
2021/04/02 06:52:48;;;;;;;;;2.33;1.67;;;;;17.60;48.35;98379.34;4948529;28;103421;-78
2021/04/02 06:55:15;;;;;;;;;2.00;2.00;;;;;17.60;47.83;98383.97;4922927;28;101799;-76
2021/04/02 06:57:50;;;;;;;;;1.00;1.00;;;;;17.59;48.57;98391.34;4953125;28;101779;-80
2021/04/02 07:00:24;;;;;;;;;1.33;1.00;;;;;17.58;47.72;98389.69;4955487;28;103739;-77
2021/04/02 07:02:51;;;;;;;;;1.00;1.00;;;;;17.58;47.59;98394.28;4961442;28;103267;-77
2021/04/02 07:05:19;;;;;;;;;1.00;1.00;;;;;17.58;47.66;98395.16;4955271;28;102454;-77
2021/04/02 07:07:47;;;;;;;;;2.00;2.00;;;;;17.57;47.56;98398.91;4956367;28;102307;-78
2021/04/02 07:10:14;;;;;;;;;0.00;0.00;;;;;17.57;48.69;98398.09;4957663;28;102048;-78
2021/04/02 07:12:43;;;;;;;;;1.67;1.00;;;;;17.57;48.31;98403.56;4934567;28;103561;-77
2021/04/02 07:15:11;;;;;;;;;2.00;2.00;;;;;17.56;47.87;98405.47;4936740;28;101796;-82
2021/04/02 07:17:37;;;;;;;;;2.00;2.00;;;;;17.57;48.19;98404.38;4936587;28;102271;-76
2021/04/02 07:20:05;;;;;;;;;1.00;1.00;;;;;17.56;48.31;98401.94;4934148;28;102248;-77
2021/04/02 07:22:32;;;;;;;;;2.67;2.00;;;;;17.56;48.73;98407.41;4919455;28;105202;-77
2021/04/02 07:24:59;;;;;;;;;1.00;1.00;;;;;17.55;48.49;98403.00;4947563;28;104553;-77
2021/04/02 07:27:26;;;;;;;;;1.67;1.67;;;;;17.56;48.14;98418.34;4952775;28;101929;-76
2021/04/02 07:29:54;;;;;;;;;0.67;0.67;;;;;17.54;48.48;98424.03;4941648;28;102133;-76
2021/04/02 07:32:21;;;;;;;;;1.00;1.00;;;;;17.54;48.26;98425.94;4936878;28;103452;-77
2021/04/02 07:34:48;;;;;;;;;1.00;1.00;;;;;17.55;48.85;98422.97;4961042;28;101804;-77
2021/04/02 07:37:18;;;;;;;;;0.67;0.00;;;;;17.55;48.08;98433.91;4934599;28;102142;-77
2021/04/02 07:39:48;;;;;;;;;1.00;1.00;;;;;17.54;48.71;98437.72;4954808;28;102499;-77
2021/04/02 07:42:16;;;;;;;;;1.00;1.00;;;;;17.55;48.40;98435.81;4934011;28;104136;-77
2021/04/02 07:44:44;;;;;;;;;2.00;2.00;;;;;17.55;48.28;98444.00;4915597;28;103177;-77
2021/04/02 07:47:12;;;;;;;;;1.00;1.00;;;;;17.54;47.67;98445.91;4944924;28;101816;-77
2021/04/02 07:49:41;;;;;;;;;1.00;1.00;;;;;17.54;49.35;98447.81;4931690;28;101902;-76
2021/04/02 07:52:07;;;;;;;;;2.00;2.00;;;;;17.55;48.37;98449.47;4952663;28;105273;-77
2021/04/02 07:54:36;;;;;;;;;2.00;1.00;;;;;17.55;48.94;98446.75;4949268;28;102167;-77
2021/04/02 07:57:17;;;;;;;;;1.67;1.00;;;;;17.55;48.66;98452.22;4932514;28;105006;-78
2021/04/02 07:59:45;;;;;;;;;0.00;0.00;;;;;17.54;48.37;98448.66;4871086;28;102118;-80
2021/04/02 08:02:18;;;;;;;;;1.00;1.00;;;;;17.54;47.91;98454.13;4933842;28;104052;-77
2021/04/02 08:04:57;;;;;;;;;2.67;1.33;;;;;17.54;48.44;98451.38;4943363;28;102813;-77
2021/04/02 08:07:37;;;;;;;;;1.00;1.00;;;;;17.54;47.85;98448.66;4946178;28;103545;-77
2021/04/02 08:10:07;;;;;;;;;1.00;1.00;;;;;17.54;48.35;98462.31;4933692;28;102477;-77
2021/04/02 08:12:34;;;;;;;;;1.00;1.00;;;;;17.54;47.92;98459.59;4950880;28;108020;-77
2021/04/02 08:15:16;;;;;;;;;2.00;1.33;;;;;17.54;48.61;98459.59;4943657;28;102257;-77
2021/04/02 08:17:43;;;;;;;;;3.00;2.00;;;;;17.55;47.96;98466.72;4913305;28;110876;-78
2021/04/02 08:20:20;;;;;;;;;2.00;1.00;;;;;17.55;48.22;98472.19;4938792;28;101913;-80
2021/04/02 08:22:47;;;;;;;;;1.00;1.00;;;;;17.52;48.51;98472.66;4952224;28;103635;-83
2021/04/02 08:25:15;;;;;;;;;1.00;1.00;;;;;17.56;49.03;98482.00;4959125;28;102018;-81
2021/04/02 08:27:43;;;;;;;;;2.00;1.67;;;;;17.54;48.95;98475.16;4948187;28;102067;-83
2021/04/02 08:30:12;;;;;;;;;2.00;1.33;;;;;17.56;49.11;98479.28;4950707;28;105095;-80
2021/04/02 08:32:44;;;;;;;;;2.33;2.00;;;;;17.55;49.03;98483.13;4959065;28;103392;-80
2021/04/02 08:35:12;;;;;;;;;1.00;1.00;;;;;17.55;48.42;98477.66;4913633;28;102449;-80
2021/04/02 08:37:54;;;;;;;;;3.33;1.67;;;;;17.55;48.77;98485.84;4952030;28;102588;-80
2021/04/02 08:40:21;;;;;;;;;1.00;1.00;;;;;17.56;48.75;98483.94;4942966;28;102193;-80
2021/04/02 08:42:50;;;;;;;;;2.00;2.00;;;;;17.55;48.11;98485.03;4944226;28;103568;-80
2021/04/02 08:45:18;;;;;;;;;1.00;1.00;;;;;17.57;48.80;98489.16;4932720;28;102432;-80
2021/04/02 08:47:47;;;;;;;;;1.00;1.00;;;;;17.56;48.71;98490.22;4952873;28;101816;-80
2021/04/02 08:50:13;;;;;;;;;1.67;1.00;;;;;17.56;48.45;98492.94;4952535;28;104541;-80
2021/04/02 08:52:40;;;;;;;;;2.00;2.00;;;;;17.57;48.62;98489.16;4936190;28;104397;-79
2021/04/02 08:55:07;;;;;;;;;2.00;2.00;;;;;17.58;47.67;98493.56;4942328;28;102808;-80
2021/04/02 08:57:35;;;;;;;;;2.00;1.33;;;;;17.59;48.20;98483.47;4951329;28;103268;-80
2021/04/02 09:00:07;;;;;;;;;1.33;1.33;;;;;17.60;48.46;98480.50;4946314;28;102001;-80
2021/04/02 09:02:35;;;;;;;;;1.00;1.00;;;;;17.61;47.52;98489.50;4950291;28;108295;-80
2021/04/02 09:05:03;;;;;;;;;1.33;1.00;;;;;17.61;47.72;98487.59;4944666;28;102354;-80
2021/04/02 09:07:39;;;;;;;;;2.00;1.00;;;;;17.62;48.34;98493.91;4937852;28;102293;-80
2021/04/02 09:10:11;;;;;;;;;2.00;2.00;;;;;17.63;47.88;98498.31;4954526;28;101868;-80
2021/04/02 09:12:38;;;;;;;;;2.00;1.00;;;;;17.64;47.74;98497.22;4947586;28;108107;-80
2021/04/02 09:15:05;;;;;;;;;0.67;0.67;;;;;17.63;48.82;98496.41;4952538;28;101782;-80
2021/04/02 09:17:31;;;;;;;;;1.67;1.00;;;;;17.64;47.42;98499.97;4948466;28;103462;-80
2021/04/02 09:19:58;;;;;;;;;1.00;1.00;;;;;17.65;48.28;98501.63;4949122;28;104332;-80
2021/04/02 09:22:25;;;;;;;;;1.00;1.00;;;;;17.66;48.24;98503.25;4933704;28;103406;-80
2021/04/02 09:24:53;;;;;;;;;0.67;0.67;;;;;17.66;48.57;98495.06;4937526;28;101893;-80
2021/04/02 09:27:20;;;;;;;;;1.00;1.00;;;;;17.66;47.83;98498.63;4914026;28;104344;-80
2021/04/02 09:29:48;;;;;;;;;1.67;1.00;;;;;17.66;47.82;98495.06;4949688;28;101962;-80
2021/04/02 09:32:15;;;;;;;;;1.00;1.00;;;;;17.67;47.59;98497.56;4949199;28;103247;-80
2021/04/02 09:34:41;;;;;;;;;1.00;1.00;;;;;17.67;48.08;98492.09;4943780;28;102280;-80
2021/04/02 09:37:08;;;;;;;;;1.00;1.00;;;;;17.69;48.10;98491.84;4921188;28;104028;-80
2021/04/02 09:39:36;;;;;;;;;1.00;1.00;;;;;17.69;47.91;98487.22;4912507;28;102640;-81
2021/04/02 09:42:04;;;;;;;;;1.00;1.00;;;;;17.70;48.10;98488.00;4950118;28;104855;-78
2021/04/02 09:44:32;;;;;;;;;1.67;1.67;;;;;17.70;47.55;98488.84;4949271;28;101756;-78
2021/04/02 09:47:09;;;;;;;;;2.00;1.00;;;;;17.71;47.70;98481.47;4928562;28;102939;-79
2021/04/02 09:49:37;;;;;;;;;1.00;1.00;;;;;17.71;47.56;98482.31;4953106;28;102276;-79
2021/04/02 09:52:04;;;;;;;;;0.00;0.00;;;;;17.72;47.62;98478.50;4929600;28;110742;-79
2021/04/02 09:54:31;;;;;;;;;1.00;1.00;;;;;17.72;48.44;98481.22;4949148;28;101860;-80
2021/04/02 09:57:05;;;;;;;;;2.00;1.00;;;;;17.73;48.68;98482.91;4950119;28;102087;-81
2021/04/02 09:59:32;;;;;;;;;1.00;1.00;;;;;17.74;47.48;98481.78;4950968;28;102335;-80
2021/04/02 10:01:59;;;;;;;;;1.00;1.00;;;;;17.75;48.41;98477.16;4943517;28;103197;-80
2021/04/02 10:04:26;;;;;;;;;1.00;1.00;;;;;17.75;48.10;98469.78;4945449;28;102874;-81
2021/04/02 10:06:53;;;;;;;;;1.00;1.00;;;;;17.77;48.12;98481.31;4931475;28;102221;-81
2021/04/02 10:09:20;;;;;;;;;1.00;1.00;;;;;17.78;47.57;98479.41;4945104;28;102025;-80
2021/04/02 10:11:48;;;;;;;;;1.00;1.00;;;;;17.79;48.28;98479.13;4942456;28;104611;-80
2021/04/02 10:14:17;;;;;;;;;1.00;1.00;;;;;17.79;47.62;98476.41;4948298;28;102109;-81
2021/04/02 10:16:47;;;;;;;;;0.67;0.67;;;;;17.80;47.30;98474.50;4933298;28;105048;-81
2021/04/02 10:19:15;;;;;;;;;1.00;1.00;;;;;17.80;47.61;98479.97;4944644;28;102932;-80
2021/04/02 10:21:41;;;;;;;;;1.00;1.00;;;;;17.81;46.96;98487.94;4942900;28;103257;-80
2021/04/02 10:24:09;;;;;;;;;1.67;1.00;;;;;17.82;47.75;98478.66;4942607;28;102011;-81
2021/04/02 10:26:36;;;;;;;;;1.00;1.00;;;;;17.83;47.07;98477.56;4960581;28;102163;-81
2021/04/02 10:29:04;;;;;;;;;1.00;1.00;;;;;17.84;47.61;98479.22;4900019;28;101867;-80
2021/04/02 10:31:30;;;;;;;;;1.00;1.00;;;;;17.84;48.04;98471.00;4942599;28;103243;-81
2021/04/02 10:33:57;;;;;;;;;0.00;0.00;;;;;17.86;47.78;98473.50;4950194;28;101822;-80
2021/04/02 10:36:24;;;;;;;;;1.33;1.33;;;;;17.86;47.97;98472.69;4931905;28;102607;-80
2021/04/02 10:38:52;;;;;;;;;1.00;1.00;;;;;17.86;47.78;98459.84;4934134;28;102099;-81
2021/04/02 10:41:18;;;;;;;;;1.00;1.00;;;;;17.88;47.92;98457.66;4925520;28;103371;-81
2021/04/02 10:43:45;;;;;;;;;1.00;1.00;;;;;17.90;47.28;98462.88;4946694;28;102342;-81
2021/04/02 10:46:13;;;;;;;;;0.00;0.00;;;;;17.91;48.05;98465.38;4934996;28;101808;-80
2021/04/02 10:48:40;;;;;;;;;1.00;1.00;;;;;17.92;47.42;98449.78;4923087;28;104804;-80
2021/04/02 10:51:07;;;;;;;;;1.00;1.00;;;;;17.93;47.65;98451.44;4917879;28;103376;-80
2021/04/02 10:53:34;;;;;;;;;1.00;1.00;;;;;17.94;47.32;98442.16;4942147;28;101640;-80
2021/04/02 10:56:03;;;;;;;;;1.00;1.00;;;;;17.97;46.98;98430.69;4937414;28;102151;-80
2021/04/02 10:58:31;;;;;;;;;1.00;1.00;;;;;17.98;47.57;98429.63;4943681;28;102033;-80
2021/04/02 11:00:59;;;;;;;;;2.00;1.00;;;;;17.98;47.56;98424.97;4946576;28;103646;-80
2021/04/02 11:03:26;;;;;;;;;2.00;1.00;;;;;18.00;47.37;98422.84;4942673;28;102421;-80
2021/04/02 11:05:53;;;;;;;;;1.00;1.00;;;;;18.02;47.34;98417.91;4933684;28;102424;-80
2021/04/02 11:08:19;;;;;;;;;1.00;1.00;;;;;18.04;47.72;98421.25;4951980;28;102038;-80
2021/04/02 11:10:46;;;;;;;;;1.00;1.00;;;;;18.05;46.87;98420.16;4938781;28;103368;-80
2021/04/02 11:13:13;;;;;;;;;0.33;0.33;;;;;18.07;47.60;98419.91;4940528;28;102391;-80
2021/04/02 11:15:39;;;;;;;;;1.00;1.00;;;;;18.10;46.71;98413.94;4936308;28;101900;-80
2021/04/02 11:18:06;;;;;;;;;1.00;1.00;;;;;18.12;47.08;98417.22;4942208;28;101917;-80
2021/04/02 11:20:33;;;;;;;;;1.33;1.00;;;;;18.13;47.05;98418.88;4940948;28;103406;-80
2021/04/02 11:23:00;;;;;;;;;0.00;0.00;;;;;18.15;46.81;98409.31;4933460;28;102404;-80
2021/04/02 11:25:26;;;;;;;;;1.00;1.00;;;;;18.17;46.58;98412.66;4944887;28;102918;-80
2021/04/02 11:27:53;;;;;;;;;0.00;0.00;;;;;18.13;44.98;98402.47;4950420;28;102181;-80
2021/04/02 11:30:21;;;;;;;;;1.33;1.33;;;;;18.11;44.58;98404.63;4950907;28;103365;-83